createdAt,value
2018-09-21T00:00:31.422Z,54.72
2018-09-21T00:03:00.325Z,53.66
2018-09-21T00:05:29.301Z,53.26
2018-09-21T00:07:58.230Z,53.78
2018-09-21T00:10:27.181Z,56.20
2018-09-21T00:12:56.113Z,54.45
2018-09-21T00:15:25.069Z,57.30
2018-09-21T00:17:53.997Z,55.15
2018-09-21T00:20:22.963Z,53.95
2018-09-21T00:22:51.911Z,54.18
2018-09-21T00:25:20.880Z,53.62
2018-09-21T00:27:49.781Z,53.00
2018-09-21T00:30:18.761Z,53.21
2018-09-21T00:32:47.705Z,52.98
2018-09-21T00:35:16.671Z,53.12
2018-09-21T00:37:45.707Z,53.49
2018-09-21T00:40:14.759Z,54.23
2018-09-21T00:42:43.686Z,55.13
2018-09-21T00:45:12.666Z,53.93
2018-09-21T00:47:41.594Z,56.89
2018-09-21T00:50:10.575Z,57.51
2018-09-21T00:52:39.488Z,55.45
2018-09-21T00:55:08.509Z,55.23
2018-09-21T00:57:37.416Z,55.54
2018-09-21T01:00:06.628Z,54.38
2018-09-21T01:02:35.539Z,53.81
2018-09-21T01:05:04.502Z,53.55
2018-09-21T01:07:33.405Z,54.02
2018-09-21T01:10:02.367Z,54.13
2018-09-21T01:12:31.286Z,53.98
2018-09-21T01:15:00.268Z,54.39
2018-09-21T01:17:29.217Z,54.61
2018-09-21T01:19:58.184Z,53.90
2018-09-21T01:22:27.090Z,54.30
2018-09-21T01:24:56.062Z,54.09
2018-09-21T01:27:25.009Z,55.10
2018-09-21T01:29:53.967Z,55.34
2018-09-21T01:32:22.964Z,54.55
2018-09-21T01:34:51.925Z,56.72
2018-09-21T01:37:20.838Z,55.50
2018-09-21T01:39:49.802Z,54.92
2018-09-21T01:42:18.726Z,54.87
2018-09-21T01:44:47.656Z,56.44
2018-09-21T01:47:16.575Z,57.01
2018-09-21T01:49:45.549Z,56.48
2018-09-21T01:52:14.550Z,56.20
2018-09-21T01:54:43.562Z,56.54
2018-09-21T01:57:12.769Z,56.34
2018-09-21T01:59:41.722Z,56.83
2018-09-21T02:02:10.662Z,59.29
2018-09-21T02:04:40.695Z,60.05
2018-09-21T02:07:11.254Z,59.71
2018-09-21T02:09:40.502Z,58.38
2018-09-21T02:12:09.466Z,57.83
2018-09-21T02:14:38.381Z,61.31
2018-09-21T02:17:07.427Z,60.45
2018-09-21T02:19:36.426Z,61.37
2018-09-21T02:22:05.403Z,59.29
2018-09-21T02:24:34.327Z,58.07
2018-09-21T02:27:03.299Z,57.57
2018-09-21T02:29:32.241Z,57.99
2018-09-21T02:32:01.234Z,58.95
2018-09-21T02:34:34.237Z,59.27
2018-09-21T02:37:03.160Z,62.97
2018-09-21T02:39:32.096Z,64.68
2018-09-21T02:42:01.073Z,64.38
2018-09-21T02:44:30.012Z,65.29
2018-09-21T02:46:58.977Z,64.92
2018-09-21T02:49:27.881Z,61.75
2018-09-21T02:51:56.883Z,63.26
2018-09-21T02:54:25.788Z,61.26
2018-09-21T02:56:54.854Z,61.50
2018-09-21T02:59:23.798Z,61.01
2018-09-21T03:01:52.758Z,60.92
2018-09-21T03:04:21.705Z,62.51
2018-09-21T03:06:50.630Z,60.72
2018-09-21T03:09:19.590Z,64.19
2018-09-21T03:11:48.534Z,62.06
2018-09-21T03:14:17.456Z,62.63
2018-09-21T03:16:46.416Z,61.49
2018-09-21T03:19:15.327Z,62.29
2018-09-21T03:21:44.322Z,61.68
2018-09-21T03:24:13.226Z,62.48
2018-09-21T03:26:42.195Z,61.74
2018-09-21T03:29:11.102Z,61.03
2018-09-21T03:31:40.087Z,61.01
2018-09-21T03:34:08.999Z,61.47
2018-09-21T03:36:38.008Z,62.11
2018-09-21T03:39:08.461Z,61.77
2018-09-21T03:41:37.726Z,61.75
2018-09-21T03:44:06.660Z,61.07
2018-09-21T03:46:35.704Z,61.16
2018-09-21T03:49:04.709Z,64.10
2018-09-21T03:51:33.705Z,64.26
2018-09-21T03:54:02.610Z,65.11
2018-09-21T03:56:31.527Z,63.13
2018-09-21T03:59:00.418Z,64.13
2018-09-21T04:01:29.385Z,64.57
2018-09-21T04:03:58.332Z,66.12
2018-09-21T04:06:27.325Z,65.52
2018-09-21T04:08:56.352Z,65.17
2018-09-21T04:11:25.561Z,64.62
2018-09-21T04:13:54.526Z,63.22
2018-09-21T04:16:23.437Z,65.34
2018-09-21T04:18:52.416Z,65.13
2018-09-21T04:21:21.336Z,64.09
2018-09-21T04:23:50.261Z,63.18
2018-09-21T04:26:19.236Z,64.70
2018-09-21T04:28:48.239Z,64.98
2018-09-21T04:31:17.206Z,67.19
2018-09-21T04:33:46.165Z,65.14
2018-09-21T04:36:15.225Z,64.73
2018-09-21T04:38:44.097Z,63.64
2018-09-21T04:41:13.035Z,63.35
2018-09-21T04:43:41.965Z,63.91
2018-09-21T04:46:10.897Z,64.35
2018-09-21T04:48:39.877Z,64.99
2018-09-21T04:51:08.894Z,63.90
2018-09-21T04:53:37.834Z,63.98
2018-09-21T04:56:06.759Z,63.54
2018-09-21T04:58:35.737Z,64.56
2018-09-21T05:01:04.638Z,65.80
2018-09-21T05:03:33.637Z,64.85
2018-09-21T05:06:02.554Z,66.51
2018-09-21T05:08:31.500Z,64.44
2018-09-21T05:11:00.519Z,64.96
2018-09-21T05:13:29.510Z,65.69
2018-09-21T05:15:58.437Z,64.39
2018-09-21T05:18:27.393Z,64.73
2018-09-21T05:20:56.295Z,65.07
2018-09-21T05:23:25.267Z,64.48
2018-09-21T05:25:54.188Z,64.82
2018-09-21T05:28:23.137Z,64.82
2018-09-21T05:30:52.050Z,65.01
2018-09-21T05:33:21.047Z,65.58
2018-09-21T05:35:49.983Z,64.28
2018-09-21T05:38:19.057Z,65.46
2018-09-21T05:40:47.990Z,64.31
2018-09-21T05:43:16.975Z,64.96
2018-09-21T05:45:45.895Z,64.46
2018-09-21T05:48:14.915Z,64.35
2018-09-21T05:50:43.881Z,64.73
2018-09-21T05:53:12.879Z,66.57
2018-09-21T05:55:41.809Z,65.84
2018-09-21T05:58:10.866Z,66.22
2018-09-21T06:00:39.784Z,64.69
2018-09-21T06:03:08.785Z,66.31
2018-09-21T06:05:37.744Z,66.84
2018-09-21T06:08:06.797Z,66.29
2018-09-21T06:10:35.736Z,65.63
2018-09-21T06:13:04.739Z,65.29
2018-09-21T06:15:33.720Z,63.95
2018-09-21T06:18:02.633Z,63.36
2018-09-21T06:20:31.610Z,62.75
2018-09-21T06:23:00.578Z,63.08
2018-09-21T06:25:30.477Z,63.37
2018-09-21T06:27:59.408Z,65.46
2018-09-21T06:30:28.366Z,67.11
2018-09-21T06:32:57.290Z,65.59
2018-09-21T06:35:26.354Z,65.28
2018-09-21T06:37:55.309Z,63.97
2018-09-21T06:40:24.326Z,65.77
2018-09-21T06:42:53.280Z,65.48
2018-09-21T06:45:22.330Z,63.91
2018-09-21T06:47:51.324Z,63.91
2018-09-21T06:50:20.359Z,65.79
2018-09-21T06:52:49.308Z,65.96
2018-09-21T06:55:18.298Z,65.97
2018-09-21T06:57:47.273Z,65.09
2018-09-21T07:00:16.278Z,67.10
2018-09-21T07:02:45.217Z,68.13
2018-09-21T07:05:16.370Z,69.40
2018-09-21T07:07:45.845Z,68.66
2018-09-21T07:10:15.294Z,68.92
2018-09-21T07:12:44.328Z,68.95
2018-09-21T07:15:13.338Z,69.28
2018-09-21T07:17:42.953Z,69.60
2018-09-21T07:20:11.947Z,68.44
2018-09-21T07:22:40.927Z,69.19
2018-09-21T07:25:09.927Z,68.01
2018-09-21T07:27:38.891Z,69.27
2018-09-21T07:30:07.915Z,69.08
2018-09-21T07:32:36.917Z,66.89
2018-09-21T07:35:05.975Z,67.54
2018-09-21T07:37:34.991Z,66.16
2018-09-21T07:40:04.427Z,67.72
2018-09-21T07:42:33.346Z,66.24
2018-09-21T07:45:02.294Z,65.36
2018-09-21T07:47:31.192Z,65.23
2018-09-21T07:50:00.117Z,65.08
2018-09-21T07:52:29.008Z,64.91
2018-09-21T07:54:57.994Z,64.55
2018-09-21T07:57:26.934Z,63.75
2018-09-21T07:59:55.847Z,63.74
2018-09-21T08:02:25.206Z,62.71
2018-09-21T08:04:54.098Z,61.09
2018-09-21T08:07:23.089Z,60.68
2018-09-21T08:09:51.980Z,59.07
2018-09-21T08:12:20.938Z,58.44
2018-09-21T08:14:49.835Z,58.77
2018-09-21T08:17:18.778Z,59.42
2018-09-21T08:19:47.682Z,58.30
2018-09-21T08:22:16.633Z,57.91
2018-09-21T08:24:45.540Z,61.12
2018-09-21T08:27:16.703Z,62.28
2018-09-21T08:29:45.889Z,63.34
2018-09-21T08:32:14.948Z,61.46
2018-09-21T08:34:43.993Z,61.48
2018-09-21T08:37:12.994Z,60.59
2018-09-21T08:39:41.938Z,59.44
2018-09-21T08:42:11.145Z,59.74
2018-09-21T08:44:40.045Z,60.78
2018-09-21T08:47:09.238Z,59.62
2018-09-21T08:49:38.128Z,59.81
2018-09-21T08:52:07.056Z,59.21
2018-09-21T08:54:35.968Z,59.06
2018-09-21T08:57:04.914Z,57.09
2018-09-21T08:59:33.784Z,55.81
2018-09-21T09:02:02.717Z,55.64
2018-09-21T09:04:31.632Z,54.46
2018-09-21T09:07:00.616Z,54.69
2018-09-21T09:09:29.494Z,54.75
2018-09-21T09:11:58.486Z,53.72
2018-09-21T09:14:27.379Z,53.19
2018-09-21T09:16:56.338Z,53.39
2018-09-21T09:19:25.251Z,52.44
2018-09-21T09:21:54.169Z,52.36
2018-09-21T09:24:23.078Z,51.25
2018-09-21T09:26:52.026Z,49.89
2018-09-21T09:29:20.960Z,46.34
2018-09-21T09:31:49.954Z,42.43
2018-09-21T09:34:18.920Z,41.11
2018-09-21T09:36:47.919Z,40.45
2018-09-21T09:39:16.890Z,40.44
2018-09-21T09:41:45.838Z,40.13
2018-09-21T09:44:14.830Z,39.98
2018-09-21T09:46:43.741Z,39.77
2018-09-21T09:49:12.777Z,39.52
2018-09-21T09:51:41.715Z,39.76
2018-09-21T09:54:10.698Z,39.43
2018-09-21T09:56:39.650Z,39.59
2018-09-21T09:59:08.618Z,39.39
2018-09-21T10:01:37.543Z,38.90
2018-09-21T10:04:06.509Z,39.34
2018-09-21T10:06:35.425Z,38.30
2018-09-21T10:09:05.428Z,38.10
2018-09-21T10:11:34.353Z,37.95
2018-09-21T10:14:03.354Z,37.63
2018-09-21T10:16:32.399Z,37.80
2018-09-21T10:19:01.377Z,38.02
2018-09-21T10:21:30.301Z,38.70
2018-09-21T10:23:59.340Z,38.50
2018-09-21T10:26:28.278Z,38.86
2018-09-21T10:28:57.230Z,38.24
2018-09-21T10:31:26.282Z,37.93
2018-09-21T10:33:55.278Z,38.44
2018-09-21T10:36:24.263Z,38.35
2018-09-21T10:38:53.373Z,38.81
2018-09-21T10:41:22.312Z,38.16
2018-09-21T10:43:51.267Z,38.24
2018-09-21T10:46:20.174Z,38.60
2018-09-21T10:48:49.114Z,38.67
2018-09-21T10:51:18.037Z,39.04
2018-09-21T10:53:47.087Z,39.18
2018-09-21T10:56:16.012Z,38.87
2018-09-21T10:58:45.006Z,38.81
2018-09-21T11:01:13.978Z,39.46
2018-09-21T11:03:42.978Z,39.17
2018-09-21T11:06:11.917Z,39.53
2018-09-21T11:08:40.874Z,39.98
2018-09-21T11:11:09.810Z,40.22
2018-09-21T11:13:38.824Z,40.72
2018-09-21T11:16:08.037Z,40.33
2018-09-21T11:18:37.003Z,40.78
2018-09-21T11:21:05.946Z,41.67
2018-09-21T11:23:34.906Z,41.47
2018-09-21T11:26:03.831Z,41.48
2018-09-21T11:28:32.826Z,42.84
2018-09-21T11:31:04.170Z,42.67
2018-09-21T11:33:33.105Z,43.05
2018-09-21T11:36:02.019Z,42.15
2018-09-21T11:38:31.001Z,43.48
2018-09-21T11:41:00.218Z,44.37
2018-09-21T11:43:29.118Z,44.10
2018-09-21T11:45:58.082Z,44.08
2018-09-21T11:48:27.129Z,44.29
2018-09-21T11:50:56.021Z,44.40
2018-09-21T11:53:24.993Z,44.88
2018-09-21T11:55:53.916Z,45.63
2018-09-21T11:58:22.887Z,48.62
2018-09-21T12:00:52.389Z,52.14
2018-09-21T12:03:21.359Z,52.86
2018-09-21T12:05:50.268Z,53.13
2018-09-21T12:08:19.253Z,53.59
2018-09-21T12:10:48.853Z,53.29
2018-09-21T12:13:18.409Z,55.10
2018-09-21T12:15:47.648Z,57.60
2018-09-21T12:18:16.766Z,57.29
2018-09-21T12:20:45.772Z,59.50
2018-09-21T12:23:14.810Z,58.62
2018-09-21T12:25:43.844Z,60.50
2018-09-21T12:28:12.984Z,58.77
2018-09-21T12:30:41.918Z,61.09
2018-09-21T12:33:10.965Z,60.36
2018-09-21T12:35:40.017Z,64.94
2018-09-21T12:38:09.221Z,70.47
2018-09-21T12:40:38.346Z,69.63
2018-09-21T12:43:07.546Z,68.86
2018-09-21T12:45:36.915Z,67.75
2018-09-21T12:48:05.951Z,66.94
2018-09-21T12:50:35.078Z,66.48
2018-09-21T12:53:04.102Z,65.59
2018-09-21T12:55:33.167Z,67.69
2018-09-21T12:58:02.278Z,66.67
2018-09-21T13:00:36.411Z,66.39
2018-09-21T13:03:05.555Z,66.48
2018-09-21T13:05:35.672Z,65.87
2018-09-21T13:08:04.778Z,67.82
2018-09-21T13:10:34.195Z,66.16
2018-09-21T13:13:03.267Z,64.51
2018-09-21T13:15:32.325Z,65.79
2018-09-21T13:18:01.254Z,64.25
2018-09-21T13:20:30.249Z,64.57
2018-09-21T13:22:59.218Z,61.86
2018-09-21T13:25:28.393Z,61.37
2018-09-21T13:27:57.338Z,61.02
2018-09-21T13:30:26.316Z,60.92
2018-09-21T13:32:55.231Z,59.95
2018-09-21T13:35:24.206Z,59.48
2018-09-21T13:37:53.178Z,58.60
2018-09-21T13:40:22.266Z,58.41
2018-09-21T13:42:51.317Z,59.11
2018-09-21T13:45:22.005Z,59.05
2018-09-21T13:47:52.232Z,57.39
2018-09-21T13:50:21.454Z,59.51
2018-09-21T13:52:50.491Z,58.91
2018-09-21T13:55:19.493Z,58.50
2018-09-21T13:57:48.479Z,59.71
2018-09-21T14:00:17.491Z,58.80
2018-09-21T14:02:46.445Z,59.56
2018-09-21T14:05:15.406Z,59.91
2018-09-21T14:07:44.411Z,60.50
2018-09-21T14:10:13.384Z,59.82
2018-09-21T14:12:42.382Z,60.41
2018-09-21T14:15:11.331Z,60.82
2018-09-21T14:17:40.265Z,60.72
2018-09-21T14:20:09.202Z,59.11
2018-09-21T14:22:38.167Z,58.68
2018-09-21T14:25:07.235Z,59.49
2018-09-21T14:27:36.366Z,58.06
2018-09-21T14:30:05.437Z,57.94
2018-09-21T14:32:34.427Z,56.74
2018-09-21T14:35:03.376Z,57.84
2018-09-21T14:37:32.342Z,56.63
2018-09-21T14:40:01.267Z,58.04
2018-09-21T14:42:30.238Z,57.26
2018-09-21T14:44:59.450Z,56.37
2018-09-21T14:47:28.426Z,55.74
2018-09-21T14:49:57.321Z,55.87
2018-09-21T14:52:26.271Z,55.61
2018-09-21T14:54:55.238Z,51.46
2018-09-21T14:57:24.275Z,46.52
2018-09-21T14:59:53.657Z,51.87
2018-09-21T15:02:22.685Z,49.08
2018-09-21T15:04:51.916Z,47.42
2018-09-21T15:07:20.836Z,51.08
2018-09-21T15:09:49.807Z,50.72
2018-09-21T15:12:19.048Z,51.61
2018-09-21T15:14:47.966Z,51.61
2018-09-21T15:17:16.913Z,51.08
2018-09-21T15:19:45.910Z,52.11
2018-09-21T15:22:15.143Z,52.63
2018-09-21T15:24:44.173Z,52.39
2018-09-21T15:27:13.107Z,52.63
2018-09-21T15:29:42.071Z,52.98
2018-09-21T15:32:11.142Z,51.87
2018-09-21T15:34:40.042Z,50.77
2018-09-21T15:37:08.974Z,50.96
2018-09-21T15:39:37.940Z,51.06
2018-09-21T15:42:06.891Z,49.21
2018-09-21T15:44:35.810Z,49.30
2018-09-21T15:47:04.796Z,49.82
2018-09-21T15:49:34.057Z,49.67
2018-09-21T15:52:03.117Z,49.86
2018-09-21T15:54:32.037Z,50.08
2018-09-21T15:57:01.029Z,49.68
2018-09-21T15:59:30.301Z,50.68
2018-09-21T16:01:59.276Z,50.47
2018-09-21T16:04:28.154Z,50.51
2018-09-21T16:06:57.126Z,49.92
2018-09-21T16:09:26.019Z,50.50
2018-09-21T16:11:55.047Z,50.83
2018-09-21T16:14:23.986Z,51.25
2018-09-21T16:16:52.896Z,50.57
2018-09-21T16:19:21.836Z,51.21
2018-09-21T16:21:50.965Z,50.81
2018-09-21T16:24:19.942Z,51.19
2018-09-21T16:26:48.867Z,51.47
2018-09-21T16:29:17.823Z,50.39
2018-09-21T16:31:46.857Z,51.28
2018-09-21T16:34:15.822Z,50.96
2018-09-21T16:36:44.798Z,50.87
2018-09-21T16:39:13.832Z,50.92
2018-09-21T16:41:42.913Z,51.23
2018-09-21T16:44:12.613Z,50.88
2018-09-21T16:46:41.555Z,49.98
2018-09-21T16:49:10.561Z,49.90
2018-09-21T16:51:39.552Z,48.94
2018-09-21T16:54:08.608Z,48.59
2018-09-21T16:56:37.766Z,48.51
2018-09-21T16:59:06.716Z,48.70
2018-09-21T17:01:35.674Z,49.05
2018-09-21T17:04:04.701Z,48.29
2018-09-21T17:06:33.720Z,45.15
2018-09-21T17:09:02.812Z,44.99
2018-09-21T17:11:31.777Z,44.10
2018-09-21T17:14:00.750Z,43.96
2018-09-21T17:16:29.746Z,45.50
2018-09-21T17:18:58.733Z,47.75
2018-09-21T17:21:27.669Z,45.95
2018-09-21T17:23:56.646Z,45.12
2018-09-21T17:26:25.630Z,46.93
2018-09-21T17:28:54.728Z,45.78
2018-09-21T17:31:24.072Z,44.85
2018-09-21T17:33:53.077Z,45.31
2018-09-21T17:36:22.148Z,44.14
2018-09-21T17:38:51.126Z,45.35
2018-09-21T17:41:20.122Z,42.46
2018-09-21T17:43:49.158Z,42.93
2018-09-21T17:46:18.141Z,43.81
2018-09-21T17:48:47.162Z,42.35
2018-09-21T17:51:16.201Z,41.47
2018-09-21T17:53:45.174Z,42.19
2018-09-21T17:56:14.184Z,41.21
2018-09-21T17:58:43.166Z,40.77
2018-09-21T18:01:12.138Z,40.52
2018-09-21T18:03:41.087Z,40.80
2018-09-21T18:06:10.092Z,40.40
2018-09-21T18:08:39.098Z,40.22
2018-09-21T18:11:08.078Z,40.54
2018-09-21T18:13:37.048Z,41.94
2018-09-21T18:16:06.106Z,40.39
2018-09-21T18:18:35.014Z,40.25
2018-09-21T18:21:03.997Z,39.50
2018-09-21T18:23:32.968Z,40.00
2018-09-21T18:26:02.033Z,39.90
2018-09-21T18:28:31.001Z,40.91
2018-09-21T18:30:59.998Z,40.59
2018-09-21T18:33:28.997Z,39.78
2018-09-21T18:35:58.002Z,39.69
2018-09-21T18:38:26.958Z,40.44
2018-09-21T18:40:55.954Z,40.83
2018-09-21T18:43:25.113Z,39.90
2018-09-21T18:45:54.106Z,40.79
2018-09-21T18:48:23.081Z,40.43
2018-09-21T18:50:52.173Z,40.94
2018-09-21T18:53:21.138Z,41.67
2018-09-21T18:55:50.168Z,42.18
2018-09-21T18:58:19.156Z,41.95
2018-09-21T19:00:48.291Z,42.46
2018-09-21T19:03:17.301Z,42.47
2018-09-21T19:05:46.426Z,42.69
2018-09-21T19:08:15.425Z,42.51
2018-09-21T19:10:44.486Z,42.49
2018-09-21T19:13:13.426Z,42.16
2018-09-21T19:15:42.403Z,42.47
2018-09-21T19:18:11.634Z,42.57
2018-09-21T19:20:40.647Z,42.58
2018-09-21T19:23:09.627Z,43.48
2018-09-21T19:25:38.645Z,43.33
2018-09-21T19:28:07.658Z,43.17
2018-09-21T19:30:36.850Z,43.69
2018-09-21T19:33:06.081Z,43.46
2018-09-21T19:35:35.327Z,44.21
2018-09-21T19:38:05.190Z,45.15
2018-09-21T19:40:34.097Z,44.27
2018-09-21T19:43:03.209Z,43.41
2018-09-21T19:45:32.176Z,43.65
2018-09-21T19:48:01.149Z,43.22
2018-09-21T19:50:30.039Z,42.64
2018-09-21T19:52:59.018Z,42.43
2018-09-21T19:55:27.969Z,42.44
2018-09-21T19:57:57.554Z,42.09
2018-09-21T20:00:26.550Z,42.31
2018-09-21T20:02:55.534Z,41.57
2018-09-21T20:05:24.538Z,42.18
2018-09-21T20:07:53.750Z,42.23
2018-09-21T20:10:22.695Z,41.77
2018-09-21T20:12:51.659Z,42.38
2018-09-21T20:15:20.575Z,42.42
2018-09-21T20:17:49.822Z,41.87
2018-09-21T20:20:18.802Z,42.19
2018-09-21T20:22:47.754Z,41.69
2018-09-21T20:25:16.843Z,41.69
2018-09-21T20:27:45.805Z,41.50
2018-09-21T20:30:19.774Z,41.22
2018-09-21T20:32:53.929Z,41.31
2018-09-21T20:35:22.913Z,41.21
2018-09-21T20:37:51.884Z,41.44
2018-09-21T20:40:20.890Z,41.76
2018-09-21T20:42:49.854Z,41.34
2018-09-21T20:45:18.846Z,40.98
2018-09-21T20:47:47.805Z,41.75
2018-09-21T20:50:16.815Z,41.51
2018-09-21T20:52:45.822Z,41.14
2018-09-21T20:55:14.758Z,41.60
2018-09-21T20:57:43.742Z,42.10
2018-09-21T21:00:12.668Z,41.44
2018-09-21T21:02:41.628Z,41.45
2018-09-21T21:05:10.583Z,42.06
2018-09-21T21:07:39.530Z,41.97
2018-09-21T21:10:08.455Z,42.61
2018-09-21T21:12:37.401Z,42.08
2018-09-21T21:15:06.846Z,42.42
2018-09-21T21:17:35.842Z,42.27
2018-09-21T21:20:04.783Z,42.14
2018-09-21T21:22:33.696Z,42.69
2018-09-21T21:25:02.617Z,43.12
2018-09-21T21:27:31.522Z,43.03
2018-09-21T21:30:00.476Z,42.27
2018-09-21T21:32:29.430Z,42.54
2018-09-21T21:34:58.414Z,42.92
2018-09-21T21:37:27.381Z,43.01
2018-09-21T21:39:56.585Z,42.72
2018-09-21T21:42:25.562Z,43.07
2018-09-21T21:44:54.582Z,43.08
2018-09-21T21:47:23.518Z,42.74
2018-09-21T21:49:52.492Z,43.10
2018-09-21T21:52:21.429Z,42.93
2018-09-21T21:54:50.415Z,43.28
2018-09-21T21:57:19.366Z,43.34
2018-09-21T21:59:48.430Z,43.10
2018-09-21T22:02:17.457Z,43.23
2018-09-21T22:04:46.461Z,43.82
2018-09-21T22:07:15.484Z,43.71
2018-09-21T22:09:44.458Z,43.62
2018-09-21T22:12:18.445Z,43.63
2018-09-21T22:14:47.433Z,43.81
2018-09-21T22:17:16.458Z,43.17
2018-09-21T22:19:45.456Z,43.65
2018-09-21T22:22:14.417Z,43.02
2018-09-21T22:24:43.430Z,42.83
2018-09-21T22:27:12.414Z,42.96
2018-09-21T22:29:41.769Z,43.00
2018-09-21T22:32:11.322Z,42.97
2018-09-21T22:34:40.745Z,42.60
2018-09-21T22:37:10.097Z,43.03
2018-09-21T22:39:39.509Z,43.00
2018-09-21T22:42:09.135Z,43.37
2018-09-21T22:44:38.441Z,42.98
2018-09-21T22:47:08.006Z,43.10
2018-09-21T22:49:37.346Z,43.23
2018-09-21T22:52:06.621Z,43.09
2018-09-21T22:54:35.847Z,42.67
2018-09-21T22:57:05.455Z,42.57
2018-09-21T22:59:35.038Z,42.47
2018-09-21T23:02:04.468Z,43.00
2018-09-21T23:04:33.868Z,42.84
2018-09-21T23:07:03.338Z,42.84
2018-09-21T23:09:32.726Z,42.74
2018-09-21T23:12:02.336Z,43.16
2018-09-21T23:14:31.994Z,43.24
2018-09-21T23:17:01.353Z,43.44
2018-09-21T23:19:30.806Z,43.51
2018-09-21T23:22:00.158Z,43.91
2018-09-21T23:24:29.450Z,43.71
2018-09-21T23:26:58.651Z,43.48
2018-09-21T23:29:27.914Z,43.98
2018-09-21T23:31:57.163Z,43.87
2018-09-21T23:34:26.712Z,43.94
2018-09-21T23:36:55.974Z,43.87
2018-09-21T23:39:25.197Z,43.99
2018-09-21T23:41:54.689Z,44.24
2018-09-21T23:44:24.312Z,44.35
2018-09-21T23:46:53.618Z,44.54
2018-09-21T23:49:23.123Z,44.40
2018-09-21T23:51:52.366Z,44.15
2018-09-21T23:54:21.741Z,44.56
2018-09-21T23:56:51.047Z,44.72
2018-09-21T23:59:20.341Z,44.75
